createdAt,value
2023-03-29T00:02:19.660Z,98453.63
2023-03-29T00:04:46.978Z,98459.53
2023-03-29T00:07:14.109Z,98454.72
2023-03-29T00:09:40.634Z,98448.97
2023-03-29T00:12:07.196Z,98449.81
2023-03-29T00:14:33.928Z,98440.66
2023-03-29T00:17:00.635Z,98444.56
2023-03-29T00:19:27.129Z,98442.47
2023-03-29T00:21:53.605Z,98441.88
2023-03-29T00:24:21.357Z,98437.84
2023-03-29T00:26:48.278Z,98443.47
2023-03-29T00:29:14.791Z,98440.75
2023-03-29T00:31:41.375Z,98441.59
2023-03-29T00:34:07.914Z,98443.69
2023-03-29T00:36:34.414Z,98439.13
2023-03-29T00:39:01.079Z,98433.91
2023-03-29T00:41:27.635Z,98431.81
2023-03-29T00:44:01.610Z,98433.72
2023-03-29T00:46:29.766Z,98434.41
2023-03-29T00:49:07.273Z,98435.25
2023-03-29T00:51:34.321Z,98434.66
2023-03-29T00:54:01.562Z,98438.47
2023-03-29T00:56:29.979Z,98439.97
2023-03-29T00:59:03.703Z,98444.25
2023-03-29T01:01:45.646Z,98445.22
2023-03-29T01:04:41.555Z,98445.81
2023-03-29T01:07:30.777Z,98446.00
2023-03-29T01:10:19.084Z,98446.56
2023-03-29T01:12:57.646Z,98445.25
2023-03-29T01:15:26.414Z,98433.41
2023-03-29T01:17:55.439Z,98419.75
2023-03-29T01:20:26.673Z,98421.66
2023-03-29T01:23:13.986Z,98420.16
2023-03-29T01:25:58.095Z,98417.25
2023-03-29T01:28:34.016Z,98408.84
2023-03-29T01:31:09.179Z,98414.81
2023-03-29T01:33:42.746Z,98397.88
2023-03-29T01:36:27.191Z,98392.50
2023-03-29T01:39:05.050Z,98395.44
2023-03-29T01:41:46.691Z,98393.94
2023-03-29T01:44:51.523Z,98382.44
2023-03-29T01:47:33.168Z,98375.22
2023-03-29T01:50:17.110Z,98370.19
2023-03-29T01:53:01.249Z,98376.09
2023-03-29T01:55:31.749Z,98367.81
2023-03-29T01:57:59.040Z,98355.78
2023-03-29T02:00:27.630Z,98358.06
2023-03-29T02:02:57.037Z,98354.88
2023-03-29T02:05:24.390Z,98358.34
2023-03-29T02:07:51.531Z,98359.69
2023-03-29T02:10:18.079Z,98347.50
2023-03-29T02:12:44.596Z,98336.38
2023-03-29T02:15:13.133Z,98339.03
2023-03-29T02:17:39.637Z,98337.34
2023-03-29T02:20:14.475Z,98337.84
2023-03-29T02:22:52.168Z,98331.38
2023-03-29T02:25:18.915Z,98327.34
2023-03-29T02:27:45.523Z,98318.94
2023-03-29T02:30:12.481Z,98324.34
2023-03-29T02:33:03.648Z,98320.78
2023-03-29T02:35:34.170Z,98323.31
2023-03-29T02:38:02.459Z,98315.22
2023-03-29T02:40:28.975Z,98317.50
2023-03-29T02:42:55.937Z,98308.16
2023-03-29T02:45:22.421Z,98315.19
2023-03-29T02:47:51.756Z,98315.72
2023-03-29T02:50:19.798Z,98313.81
2023-03-29T02:52:59.227Z,98314.56
2023-03-29T02:55:26.370Z,98317.28
2023-03-29T02:57:52.911Z,98321.50
2023-03-29T03:00:20.179Z,98324.84
2023-03-29T03:02:47.801Z,98317.72
2023-03-29T03:05:14.331Z,98322.53
2023-03-29T03:07:40.852Z,98315.06
2023-03-29T03:10:09.976Z,98314.09
2023-03-29T03:12:37.413Z,98299.75
2023-03-29T03:15:05.478Z,98288.31
2023-03-29T03:17:33.280Z,98291.88
2023-03-29T03:20:00.007Z,98303.13
2023-03-29T03:22:26.508Z,98308.34
2023-03-29T03:24:52.956Z,98304.69
2023-03-29T03:27:19.423Z,98312.00
2023-03-29T03:29:46.237Z,98308.88
2023-03-29T03:32:13.481Z,98304.28
2023-03-29T03:34:39.940Z,98304.97
2023-03-29T03:37:06.412Z,98295.72
2023-03-29T03:39:33.330Z,98287.56
2023-03-29T03:41:59.780Z,98280.13
2023-03-29T03:44:26.288Z,98278.97
2023-03-29T03:46:52.735Z,98274.13
2023-03-29T03:49:19.246Z,98278.97
2023-03-29T03:51:45.841Z,98276.69
2023-03-29T03:54:12.312Z,98263.25
2023-03-29T03:56:38.874Z,98265.53
2023-03-29T03:59:05.568Z,98275.59
2023-03-29T04:01:32.136Z,98267.56
2023-03-29T04:03:58.685Z,98268.88
2023-03-29T04:06:25.490Z,98277.09
2023-03-29T04:08:52.092Z,98275.97
2023-03-29T04:11:19.032Z,98275.59
2023-03-29T04:13:46.350Z,98288.22
2023-03-29T04:16:12.920Z,98277.16
2023-03-29T04:18:39.498Z,98255.06
2023-03-29T04:21:06.286Z,98262.50
2023-03-29T04:23:32.752Z,98254.03
2023-03-29T04:25:59.377Z,98257.81
2023-03-29T04:28:25.926Z,98266.19
2023-03-29T04:30:52.683Z,98267.91
2023-03-29T04:33:19.229Z,98261.78
2023-03-29T04:35:45.902Z,98245.94
2023-03-29T04:38:12.483Z,98240.06
2023-03-29T04:40:38.927Z,98247.06
2023-03-29T04:43:05.415Z,98240.34
2023-03-29T04:45:31.857Z,98234.09
2023-03-29T04:47:59.602Z,98245.94
2023-03-29T04:50:26.706Z,98247.19
2023-03-29T04:52:53.146Z,98248.00
2023-03-29T04:55:19.625Z,98242.63
2023-03-29T04:57:46.169Z,98250.44
2023-03-29T05:00:16.766Z,98253.50
2023-03-29T05:02:44.040Z,98260.28
2023-03-29T05:05:11.483Z,98250.44
2023-03-29T05:07:38.029Z,98250.09
2023-03-29T05:10:04.878Z,98243.53
2023-03-29T05:12:31.572Z,98246.47
2023-03-29T05:14:58.142Z,98241.53
2023-03-29T05:17:27.478Z,98245.75
2023-03-29T05:19:54.280Z,98238.72
2023-03-29T05:22:21.567Z,98242.53
2023-03-29T05:24:48.353Z,98255.53
2023-03-29T05:27:14.916Z,98262.50
2023-03-29T05:29:41.766Z,98260.66
2023-03-29T05:32:08.374Z,98251.41
2023-03-29T05:34:35.309Z,98236.22
2023-03-29T05:37:01.809Z,98229.09
2023-03-29T05:39:28.292Z,98221.59
2023-03-29T05:41:55.266Z,98213.28
2023-03-29T05:44:21.824Z,98205.66
2023-03-29T05:46:48.273Z,98217.81
2023-03-29T05:49:14.821Z,98220.75
2023-03-29T05:51:42.653Z,98229.38
2023-03-29T05:54:09.085Z,98221.38
2023-03-29T05:56:35.568Z,98230.13
2023-03-29T05:59:02.134Z,98222.66
2023-03-29T06:01:28.690Z,98224.31
2023-03-29T06:03:57.404Z,98228.13
2023-03-29T06:06:24.070Z,98217.72
2023-03-29T06:08:50.638Z,98227.22
2023-03-29T06:11:17.695Z,98218.88
2023-03-29T06:13:44.258Z,98213.75
2023-03-29T06:16:10.822Z,98209.16
2023-03-29T06:18:40.198Z,98220.81
2023-03-29T06:21:07.956Z,98215.75
2023-03-29T06:23:34.742Z,98211.97
2023-03-29T06:26:01.516Z,98196.44
2023-03-29T06:28:28.145Z,98215.00
2023-03-29T06:30:56.383Z,98209.03
2023-03-29T06:33:23.232Z,98213.88
2023-03-29T06:35:49.933Z,98220.16
2023-03-29T06:38:16.588Z,98219.13
2023-03-29T06:40:44.592Z,98213.88
2023-03-29T06:43:11.058Z,98218.88
2023-03-29T06:45:37.820Z,98214.91
2023-03-29T06:48:05.091Z,98221.63
2023-03-29T06:50:31.764Z,98212.19
2023-03-29T06:52:58.350Z,98216.94
2023-03-29T06:55:26.026Z,98225.28
2023-03-29T06:57:53.871Z,98210.97
2023-03-29T07:00:29.961Z,98224.34
2023-03-29T07:02:58.419Z,98221.78
2023-03-29T07:05:27.971Z,98220.50
2023-03-29T07:07:54.648Z,98220.84
2023-03-29T07:10:21.900Z,98221.59
2023-03-29T07:12:49.252Z,98211.38
2023-03-29T07:15:16.164Z,98219.03
2023-03-29T07:17:42.757Z,98214.09
2023-03-29T07:20:13.599Z,98217.75
2023-03-29T07:22:43.927Z,98207.63
2023-03-29T07:25:12.150Z,98217.19
2023-03-29T07:27:39.627Z,98223.16
2023-03-29T07:30:11.156Z,98220.59
2023-03-29T07:32:38.849Z,98231.78
2023-03-29T07:35:06.411Z,98230.38
2023-03-29T07:37:34.169Z,98226.69
2023-03-29T07:40:03.313Z,98230.47
2023-03-29T07:42:30.194Z,98225.97
2023-03-29T07:44:58.182Z,98232.16
2023-03-29T07:47:24.812Z,98239.75
2023-03-29T07:49:51.349Z,98230.53
2023-03-29T07:52:18.201Z,98237.41
2023-03-29T07:54:46.110Z,98237.09
2023-03-29T07:57:12.620Z,98236.88
2023-03-29T07:59:39.247Z,98229.88
2023-03-29T08:02:06.587Z,98226.91
2023-03-29T08:04:33.240Z,98224.97
2023-03-29T08:06:59.907Z,98223.78
2023-03-29T08:09:27.213Z,98223.59
2023-03-29T08:11:53.696Z,98215.00
2023-03-29T08:14:21.880Z,98215.84
2023-03-29T08:16:48.421Z,98216.56
2023-03-29T08:19:14.965Z,98229.38
2023-03-29T08:21:41.785Z,98218.28
2023-03-29T08:24:08.298Z,98213.31
2023-03-29T08:26:34.810Z,98217.00
2023-03-29T08:29:01.313Z,98216.50
2023-03-29T08:31:28.062Z,98219.16
2023-03-29T08:33:54.565Z,98225.41
2023-03-29T08:36:21.137Z,98219.88
2023-03-29T08:38:47.635Z,98225.03
2023-03-29T08:41:32.824Z,98220.38
2023-03-29T08:44:41.667Z,98223.59
2023-03-29T08:47:13.804Z,98216.75
2023-03-29T08:49:40.361Z,98215.09
2023-03-29T08:52:21.414Z,98218.44
2023-03-29T08:54:48.528Z,98223.19
2023-03-29T08:57:22.095Z,98212.03
2023-03-29T08:59:51.342Z,98210.41
2023-03-29T09:02:20.440Z,98216.09
2023-03-29T09:04:49.232Z,98202.56
2023-03-29T09:07:16.506Z,98204.63
2023-03-29T09:09:43.024Z,98205.47
2023-03-29T09:12:31.454Z,98204.53
2023-03-29T09:15:00.746Z,98204.84
2023-03-29T09:17:35.969Z,98198.94
2023-03-29T09:20:20.924Z,98209.00
2023-03-29T09:23:10.250Z,98207.09
2023-03-29T09:25:52.608Z,98197.13
2023-03-29T09:28:21.293Z,98192.06
2023-03-29T09:31:07.422Z,98189.53
2023-03-29T09:33:59.052Z,98188.03
2023-03-29T09:36:31.547Z,98189.88
2023-03-29T09:38:58.067Z,98185.06
2023-03-29T09:41:35.856Z,98181.31
2023-03-29T09:44:17.671Z,98188.88
2023-03-29T09:46:56.338Z,98178.69
2023-03-29T09:49:31.561Z,98167.00
2023-03-29T09:52:01.406Z,98177.31
2023-03-29T09:54:28.144Z,98169.50
2023-03-29T09:56:54.725Z,98169.94
2023-03-29T09:59:21.553Z,98168.69
2023-03-29T10:01:48.191Z,98163.75
2023-03-29T10:04:14.959Z,98161.41
2023-03-29T10:06:51.270Z,98152.69
2023-03-29T10:09:21.618Z,98161.00
2023-03-29T10:11:52.408Z,98160.84
2023-03-29T10:14:21.333Z,98155.63
2023-03-29T10:16:48.883Z,98145.72
2023-03-29T10:19:23.287Z,98148.09
2023-03-29T10:21:51.545Z,98146.44
2023-03-29T10:24:21.669Z,98140.81
2023-03-29T10:26:51.740Z,98132.63
2023-03-29T10:29:18.201Z,98138.06
2023-03-29T10:31:44.693Z,98138.59
2023-03-29T10:34:12.836Z,98139.72
2023-03-29T10:36:41.333Z,98145.78
2023-03-29T10:39:08.112Z,98132.50
2023-03-29T10:41:34.767Z,98141.16
2023-03-29T10:44:01.429Z,98135.47
2023-03-29T10:46:30.343Z,98128.13
2023-03-29T10:49:04.829Z,98132.75
2023-03-29T10:51:32.282Z,98123.28
2023-03-29T10:53:59.284Z,98121.00
2023-03-29T10:56:43.237Z,98116.75
2023-03-29T10:59:14.801Z,98116.81
2023-03-29T11:01:44.570Z,98122.47
2023-03-29T11:04:23.137Z,98123.28
2023-03-29T11:07:05.376Z,98119.41
2023-03-29T11:09:47.721Z,98120.94
2023-03-29T11:12:26.493Z,98112.50
2023-03-29T11:14:58.428Z,98117.72
2023-03-29T11:17:27.754Z,98111.97
2023-03-29T11:20:00.922Z,98115.97
2023-03-29T11:22:45.825Z,98108.97
2023-03-29T11:25:45.707Z,98103.91
2023-03-29T11:28:12.110Z,98097.22
2023-03-29T11:31:06.352Z,98097.72
2023-03-29T11:33:42.255Z,98100.38
2023-03-29T11:36:17.705Z,98099.53
2023-03-29T11:39:11.377Z,98093.28
2023-03-29T11:41:43.195Z,98094.97
2023-03-29T11:44:30.215Z,98097.94
2023-03-29T11:47:07.162Z,98095.94
2023-03-29T11:49:38.465Z,98093.28
2023-03-29T11:52:29.306Z,98085.28
2023-03-29T11:54:58.859Z,98090.88
2023-03-29T11:57:43.066Z,98093.03
2023-03-29T12:00:22.460Z,98098.00
2023-03-29T12:02:51.862Z,98090.22
2023-03-29T12:05:23.866Z,98074.03
2023-03-29T12:07:56.747Z,98083.47
2023-03-29T12:10:26.530Z,98085.88
2023-03-29T12:12:57.503Z,98080.16
2023-03-29T12:15:24.854Z,98073.63
2023-03-29T12:18:05.309Z,98076.19
2023-03-29T12:20:34.424Z,98071.34
2023-03-29T12:23:01.077Z,98069.53
2023-03-29T12:26:03.059Z,98056.97
2023-03-29T12:28:50.826Z,98066.03
2023-03-29T12:31:21.317Z,98053.13
2023-03-29T12:34:03.591Z,98053.59
2023-03-29T12:36:43.111Z,98059.06
2023-03-29T12:39:16.425Z,98053.16
2023-03-29T12:41:45.662Z,98058.38
2023-03-29T12:44:13.476Z,98056.72
2023-03-29T12:46:39.952Z,98060.44
2023-03-29T12:49:29.059Z,98065.75
2023-03-29T12:51:57.334Z,98059.22
2023-03-29T12:54:27.889Z,98063.78
2023-03-29T12:57:00.479Z,98072.53
2023-03-29T12:59:37.639Z,98065.66
2023-03-29T13:02:13.982Z,98060.44
2023-03-29T13:04:43.510Z,98064.44
2023-03-29T13:07:32.131Z,98055.81
2023-03-29T13:10:03.299Z,98057.31
2023-03-29T13:12:42.775Z,98045.22
2023-03-29T13:15:16.590Z,98033.59
2023-03-29T13:18:20.515Z,98034.34
2023-03-29T13:20:59.566Z,98045.59
2023-03-29T13:23:38.365Z,98046.41
2023-03-29T13:26:23.224Z,98041.09
2023-03-29T13:29:22.461Z,98036.75
2023-03-29T13:31:59.551Z,98037.75
2023-03-29T13:34:45.207Z,98033.97
2023-03-29T13:37:34.155Z,98027.00
2023-03-29T13:40:00.704Z,98030.66
2023-03-29T13:42:33.148Z,98016.59
2023-03-29T13:45:31.838Z,98016.88
2023-03-29T13:48:27.225Z,98013.94
2023-03-29T13:50:58.099Z,98006.16
2023-03-29T13:53:44.290Z,98001.31
2023-03-29T13:56:15.535Z,98000.00
2023-03-29T13:58:44.669Z,98003.19
2023-03-29T14:01:31.577Z,98002.69
2023-03-29T14:03:58.486Z,97995.59
2023-03-29T14:06:31.349Z,97984.72
2023-03-29T14:08:57.835Z,97987.88
2023-03-29T14:11:28.393Z,97987.06
2023-03-29T14:13:56.080Z,97985.84
2023-03-29T14:16:22.588Z,97988.03
2023-03-29T14:18:51.375Z,97986.38
2023-03-29T14:21:18.215Z,97979.34
2023-03-29T14:23:46.502Z,97977.06
2023-03-29T14:26:20.815Z,97983.53
2023-03-29T14:28:56.488Z,97987.03
2023-03-29T14:31:23.829Z,97997.13
2023-03-29T14:33:53.779Z,97987.47
2023-03-29T14:36:21.259Z,97996.59
2023-03-29T14:38:53.208Z,97983.34
2023-03-29T14:41:21.000Z,97978.66
2023-03-29T14:43:49.012Z,97989.28
2023-03-29T14:46:17.051Z,97991.28
2023-03-29T14:48:43.529Z,97993.91
2023-03-29T14:51:10.343Z,98000.88
2023-03-29T14:53:38.050Z,97989.25
2023-03-29T14:56:05.134Z,97993.25
2023-03-29T14:58:32.922Z,97989.94
2023-03-29T15:01:08.305Z,97974.31
2023-03-29T15:03:55.176Z,97982.31
2023-03-29T15:06:22.789Z,97973.19
2023-03-29T15:09:02.025Z,97981.34
2023-03-29T15:11:31.654Z,97988.91
2023-03-29T15:14:01.326Z,97986.78
2023-03-29T15:16:27.930Z,97977.31
2023-03-29T15:18:54.514Z,97975.25
2023-03-29T15:21:21.303Z,97971.63
2023-03-29T15:23:55.650Z,97974.28
2023-03-29T15:26:40.716Z,97961.34
2023-03-29T15:29:14.677Z,97957.38
2023-03-29T15:31:41.798Z,97949.44
2023-03-29T15:34:13.196Z,97950.09
2023-03-29T15:36:46.409Z,97953.59
2023-03-29T15:39:13.528Z,97948.44
2023-03-29T15:41:40.686Z,97949.44
2023-03-29T15:44:07.213Z,97944.75
2023-03-29T15:46:33.773Z,97939.41
2023-03-29T15:49:00.408Z,97939.63
2023-03-29T15:51:26.949Z,97944.19
2023-03-29T15:53:53.513Z,97941.47
2023-03-29T15:56:20.376Z,97940.47
2023-03-29T15:58:46.990Z,97936.13
2023-03-29T16:01:36.591Z,97935.81
2023-03-29T16:04:06.884Z,97935.13
2023-03-29T16:06:33.550Z,97932.28
2023-03-29T16:09:00.416Z,97923.97
2023-03-29T16:11:28.304Z,97925.16
2023-03-29T16:13:55.665Z,97928.38
2023-03-29T16:16:22.339Z,97926.38
2023-03-29T16:18:48.972Z,97921.41
2023-03-29T16:21:18.007Z,97915.44
2023-03-29T16:23:45.677Z,97918.13
2023-03-29T16:26:13.109Z,97927.38
2023-03-29T16:28:39.620Z,97926.56
2023-03-29T16:31:06.141Z,97921.44
2023-03-29T16:33:32.866Z,97924.66
2023-03-29T16:35:59.377Z,97929.00
2023-03-29T16:38:25.893Z,97926.66
2023-03-29T16:40:53.701Z,97921.63
2023-03-29T16:43:20.175Z,97924.97
2023-03-29T16:45:46.737Z,97925.16
2023-03-29T16:48:14.142Z,97920.94
2023-03-29T16:50:40.880Z,97916.13
2023-03-29T16:53:07.362Z,97920.94
2023-03-29T16:55:34.038Z,97910.69
2023-03-29T16:58:00.508Z,97911.06
2023-03-29T17:00:27.031Z,97912.91
2023-03-29T17:02:53.677Z,97904.78
2023-03-29T17:05:20.185Z,97904.53
2023-03-29T17:07:46.921Z,97906.28
2023-03-29T17:10:13.654Z,97914.22
2023-03-29T17:12:40.177Z,97901.47
2023-03-29T17:15:07.800Z,97914.09
2023-03-29T17:17:34.773Z,97908.06
2023-03-29T17:20:01.308Z,97908.66
2023-03-29T17:22:27.855Z,97908.47
2023-03-29T17:24:54.512Z,97918.25
2023-03-29T17:27:21.181Z,97917.22
2023-03-29T17:29:47.910Z,97927.06
2023-03-29T17:32:14.452Z,97926.31
2023-03-29T17:34:41.586Z,97919.44
2023-03-29T17:37:09.262Z,97921.63
2023-03-29T17:39:37.545Z,97921.63
2023-03-29T17:42:04.733Z,97911.34
2023-03-29T17:44:33.193Z,97921.63
2023-03-29T17:47:00.411Z,97922.88
2023-03-29T17:49:26.981Z,97918.09
2023-03-29T17:51:53.663Z,97911.88
2023-03-29T17:54:20.328Z,97928.59
2023-03-29T17:56:46.906Z,97924.81
2023-03-29T17:59:13.427Z,97927.19
2023-03-29T18:01:40.033Z,97931.25
2023-03-29T18:04:06.732Z,97927.47
2023-03-29T18:06:33.222Z,97937.41
2023-03-29T18:09:01.598Z,97929.34
2023-03-29T18:11:28.351Z,97936.91
2023-03-29T18:13:54.913Z,97943.88
2023-03-29T18:16:22.029Z,97953.41
2023-03-29T18:18:48.603Z,97955.56
2023-03-29T18:21:16.050Z,97953.41
2023-03-29T18:23:47.197Z,97943.47
2023-03-29T18:26:14.880Z,97940.81
2023-03-29T18:28:41.569Z,97940.53
2023-03-29T18:31:08.208Z,97948.78
2023-03-29T18:33:35.210Z,97942.84
2023-03-29T18:36:08.404Z,97948.25
2023-03-29T18:38:36.568Z,97950.91
2023-03-29T18:41:03.588Z,97947.50
2023-03-29T18:43:30.900Z,97955.50
2023-03-29T18:45:57.476Z,97954.38
2023-03-29T18:48:24.147Z,97957.59
2023-03-29T18:50:52.050Z,97952.91
2023-03-29T18:53:19.130Z,97947.00
2023-03-29T18:55:45.661Z,97953.38
2023-03-29T18:58:12.877Z,97958.78
2023-03-29T19:00:39.668Z,97949.13
2023-03-29T19:03:07.562Z,97960.69
2023-03-29T19:05:37.895Z,97962.81
2023-03-29T19:08:05.769Z,97958.91
2023-03-29T19:10:36.194Z,97963.22
2023-03-29T19:13:02.824Z,97964.31
2023-03-29T19:15:29.354Z,97958.69
2023-03-29T19:17:55.890Z,97960.19
2023-03-29T19:20:25.239Z,97957.59
2023-03-29T19:22:52.171Z,97960.69
2023-03-29T19:25:18.999Z,97964.59
2023-03-29T19:27:46.334Z,97954.56
2023-03-29T19:30:13.504Z,97946.22
2023-03-29T19:32:40.383Z,97950.97
2023-03-29T19:35:08.064Z,97970.16
2023-03-29T19:37:34.590Z,97931.72
2023-03-29T19:40:01.167Z,97942.16
2023-03-29T19:42:27.654Z,97945.66
2023-03-29T19:44:54.204Z,97948.25
2023-03-29T19:47:20.815Z,97942.31
2023-03-29T19:49:47.348Z,97935.06
2023-03-29T19:52:13.973Z,97934.53
2023-03-29T19:54:40.482Z,97925.59
2023-03-29T19:57:09.070Z,97927.81
2023-03-29T19:59:37.763Z,97921.13
2023-03-29T20:02:04.622Z,97922.50
2023-03-29T20:04:33.210Z,97924.09
2023-03-29T20:06:59.922Z,97917.97
2023-03-29T20:09:26.369Z,97913.03
2023-03-29T20:11:52.837Z,97912.19
2023-03-29T20:14:19.331Z,97907.28
2023-03-29T20:16:46.249Z,97894.81
2023-03-29T20:19:14.089Z,97904.75
2023-03-29T20:21:40.793Z,97903.81
2023-03-29T20:24:08.622Z,97903.38
2023-03-29T20:26:35.431Z,97916.53
2023-03-29T20:29:02.121Z,97914.84
2023-03-29T20:31:29.532Z,97904.97
2023-03-29T20:33:57.557Z,97906.50
2023-03-29T20:36:24.564Z,97906.50
2023-03-29T20:38:51.346Z,97903.88
2023-03-29T20:41:19.514Z,97910.47
2023-03-29T20:43:46.195Z,97906.94
2023-03-29T20:46:18.282Z,97897.78
2023-03-29T20:48:54.488Z,97905.66
2023-03-29T20:51:21.649Z,97902.22
2023-03-29T20:53:48.178Z,97892.91
2023-03-29T20:56:14.877Z,97899.97
2023-03-29T20:58:42.095Z,97892.88
2023-03-29T21:01:09.925Z,97895.19
2023-03-29T21:03:37.348Z,97883.69
2023-03-29T21:06:04.040Z,97895.06
2023-03-29T21:08:30.915Z,97895.13
2023-03-29T21:10:57.532Z,97905.38
2023-03-29T21:13:24.032Z,97921.81
2023-03-29T21:15:51.012Z,97919.28
2023-03-29T21:18:18.047Z,97915.06
2023-03-29T21:20:44.741Z,97915.09
2023-03-29T21:23:11.184Z,97913.28
2023-03-29T21:25:38.021Z,97899.81
2023-03-29T21:28:04.518Z,97893.97
2023-03-29T21:30:32.176Z,97887.03
2023-03-29T21:32:58.964Z,97879.06
2023-03-29T21:35:25.610Z,97879.69
2023-03-29T21:37:52.588Z,97880.06
2023-03-29T21:40:19.132Z,97882.31
2023-03-29T21:42:45.725Z,97878.41
2023-03-29T21:45:12.222Z,97871.41
2023-03-29T21:47:38.782Z,97861.94
2023-03-29T21:50:05.906Z,97855.75
2023-03-29T21:52:32.355Z,97855.75
2023-03-29T21:54:58.917Z,97849.09
2023-03-29T21:57:25.515Z,97860.00
2023-03-29T21:59:52.106Z,97853.28
2023-03-29T22:02:18.799Z,97851.09
2023-03-29T22:04:45.532Z,97843.63
2023-03-29T22:07:12.409Z,97850.34
2023-03-29T22:09:41.358Z,97847.97
2023-03-29T22:12:08.138Z,97837.47
2023-03-29T22:14:35.115Z,97840.41
2023-03-29T22:17:02.511Z,97831.63
2023-03-29T22:19:28.976Z,97825.66
2023-03-29T22:22:01.315Z,97825.06
2023-03-29T22:24:28.914Z,97823.41
2023-03-29T22:26:55.621Z,97823.09
2023-03-29T22:29:22.074Z,97826.16
2023-03-29T22:31:48.642Z,97827.06
2023-03-29T22:34:15.340Z,97828.41
2023-03-29T22:36:41.894Z,97827.56
2023-03-29T22:39:09.105Z,97824.69
2023-03-29T22:41:36.080Z,97835.41
2023-03-29T22:44:02.590Z,97833.88
2023-03-29T22:46:29.271Z,97832.66
2023-03-29T22:48:55.802Z,97834.88
2023-03-29T22:51:22.286Z,97827.09
2023-03-29T22:53:48.832Z,97832.38
2023-03-29T22:56:16.256Z,97828.31
2023-03-29T22:58:42.881Z,97813.72
2023-03-29T23:01:09.712Z,97812.88
2023-03-29T23:03:36.753Z,97814.25
2023-03-29T23:06:03.441Z,97807.75
2023-03-29T23:08:31.007Z,97804.78
2023-03-29T23:10:57.575Z,97794.47
2023-03-29T23:13:25.834Z,97789.25
2023-03-29T23:15:56.751Z,97784.25
2023-03-29T23:18:23.586Z,97782.81
2023-03-29T23:20:51.630Z,97775.88
2023-03-29T23:23:18.987Z,97781.75
2023-03-29T23:25:46.489Z,97783.41
2023-03-29T23:28:13.730Z,97785.78
2023-03-29T23:30:40.858Z,97788.69
2023-03-29T23:33:07.365Z,97777.28
2023-03-29T23:35:33.906Z,97780.38
2023-03-29T23:38:00.763Z,97781.59
2023-03-29T23:40:27.749Z,97776.06
2023-03-29T23:42:59.231Z,97772.44
2023-03-29T23:45:29.101Z,97782.31
2023-03-29T23:47:55.978Z,97771.44
2023-03-29T23:50:22.712Z,97768.13
2023-03-29T23:52:49.628Z,97766.16
2023-03-29T23:55:16.134Z,97770.06
2023-03-29T23:57:42.629Z,97768.38
